sensor_id;sensor_type;location;lat;lon;timestamp;P1;durP1;ratioP1;P2;durP2;ratioP2
66587;SDS011;53446;50.076;8.198;2023-08-12T00:00:02;133.83;;;84.93;;
66587;SDS011;53446;50.076;8.198;2023-08-12T00:02:11;136.07;;;85.38;;
66587;SDS011;53446;50.076;8.198;2023-08-12T00:04:11;134.37;;;85.30;;
66587;SDS011;53446;50.076;8.198;2023-08-12T00:06:14;131.43;;;83.72;;
66587;SDS011;53446;50.076;8.198;2023-08-12T00:08:15;135.73;;;84.90;;
66587;SDS011;53446;50.076;8.198;2023-08-12T00:10:15;132.50;;;83.97;;
66587;SDS011;53446;50.076;8.198;2023-08-12T00:12:15;133.73;;;83.30;;
66587;SDS011;53446;50.076;8.198;2023-08-12T00:14:15;130.17;;;82.20;;
66587;SDS011;53446;50.076;8.198;2023-08-12T00:16:16;127.43;;;82.70;;
66587;SDS011;53446;50.076;8.198;2023-08-12T00:18:16;129.50;;;82.43;;
66587;SDS011;53446;50.076;8.198;2023-08-12T00:20:17;130.75;;;83.28;;
66587;SDS011;53446;50.076;8.198;2023-08-12T00:22:17;129.13;;;83.60;;
66587;SDS011;53446;50.076;8.198;2023-08-12T00:24:18;130.20;;;82.47;;
66587;SDS011;53446;50.076;8.198;2023-08-12T00:26:18;133.40;;;83.47;;
66587;SDS011;53446;50.076;8.198;2023-08-12T00:28:18;126.22;;;81.35;;
66587;SDS011;53446;50.076;8.198;2023-08-12T00:30:18;133.00;;;84.20;;
66587;SDS011;53446;50.076;8.198;2023-08-12T00:32:19;129.37;;;82.97;;
66587;SDS011;53446;50.076;8.198;2023-08-12T00:34:19;130.17;;;82.93;;
66587;SDS011;53446;50.076;8.198;2023-08-12T00:36:19;130.47;;;83.77;;
66587;SDS011;53446;50.076;8.198;2023-08-12T00:38:20;133.93;;;83.33;;
66587;SDS011;53446;50.076;8.198;2023-08-12T00:40:21;128.15;;;82.63;;
66587;SDS011;53446;50.076;8.198;2023-08-12T00:42:21;129.47;;;83.70;;
66587;SDS011;53446;50.076;8.198;2023-08-12T00:44:21;132.23;;;83.77;;
66587;SDS011;53446;50.076;8.198;2023-08-12T00:46:22;133.63;;;85.17;;
66587;SDS011;53446;50.076;8.198;2023-08-12T00:48:22;127.70;;;83.20;;
66587;SDS011;53446;50.076;8.198;2023-08-12T00:50:23;128.95;;;83.15;;
66587;SDS011;53446;50.076;8.198;2023-08-12T00:52:23;128.60;;;82.57;;
66587;SDS011;53446;50.076;8.198;2023-08-12T00:54:24;125.77;;;82.53;;
66587;SDS011;53446;50.076;8.198;2023-08-12T00:56:26;130.25;;;83.82;;
66587;SDS011;53446;50.076;8.198;2023-08-12T00:58:27;128.65;;;83.20;;
66587;SDS011;53446;50.076;8.198;2023-08-12T01:00:27;128.33;;;83.07;;
66587;SDS011;53446;50.076;8.198;2023-08-12T01:02:27;133.00;;;84.60;;
66587;SDS011;53446;50.076;8.198;2023-08-12T01:04:28;129.10;;;83.45;;
66587;SDS011;53446;50.076;8.198;2023-08-12T01:06:28;132.75;;;84.10;;
66587;SDS011;53446;50.076;8.198;2023-08-12T01:08:29;131.40;;;84.10;;
66587;SDS011;53446;50.076;8.198;2023-08-12T01:10:33;128.50;;;83.07;;
66587;SDS011;53446;50.076;8.198;2023-08-12T01:12:41;130.50;;;83.78;;
66587;SDS011;53446;50.076;8.198;2023-08-12T01:16:58;131.63;;;84.35;;
66587;SDS011;53446;50.076;8.198;2023-08-12T01:19:00;132.13;;;83.13;;
66587;SDS011;53446;50.076;8.198;2023-08-12T01:21:01;128.95;;;83.07;;
66587;SDS011;53446;50.076;8.198;2023-08-12T01:25:11;130.43;;;84.15;;
66587;SDS011;53446;50.076;8.198;2023-08-12T01:27:12;129.47;;;83.50;;
66587;SDS011;53446;50.076;8.198;2023-08-12T01:29:13;128.48;;;82.35;;
66587;SDS011;53446;50.076;8.198;2023-08-12T01:31:15;129.50;;;82.93;;
66587;SDS011;53446;50.076;8.198;2023-08-12T01:33:21;128.93;;;83.28;;
66587;SDS011;53446;50.076;8.198;2023-08-12T01:35:28;130.77;;;84.43;;
66587;SDS011;53446;50.076;8.198;2023-08-12T01:37:31;127.15;;;82.10;;
66587;SDS011;53446;50.076;8.198;2023-08-12T01:39:32;122.95;;;81.25;;
66587;SDS011;53446;50.076;8.198;2023-08-12T01:41:33;125.03;;;81.70;;
66587;SDS011;53446;50.076;8.198;2023-08-12T01:43:34;124.03;;;81.07;;
66587;SDS011;53446;50.076;8.198;2023-08-12T01:45:35;123.07;;;81.23;;
66587;SDS011;53446;50.076;8.198;2023-08-12T01:47:35;124.78;;;82.07;;
66587;SDS011;53446;50.076;8.198;2023-08-12T01:49:35;124.77;;;81.90;;
66587;SDS011;53446;50.076;8.198;2023-08-12T01:51:36;127.13;;;82.13;;
66587;SDS011;53446;50.076;8.198;2023-08-12T01:53:36;126.50;;;83.63;;
66587;SDS011;53446;50.076;8.198;2023-08-12T01:55:36;125.53;;;82.67;;
66587;SDS011;53446;50.076;8.198;2023-08-12T01:57:37;127.43;;;82.73;;
66587;SDS011;53446;50.076;8.198;2023-08-12T01:59:37;123.63;;;81.67;;
66587;SDS011;53446;50.076;8.198;2023-08-12T02:01:38;125.97;;;80.97;;
66587;SDS011;53446;50.076;8.198;2023-08-12T02:03:38;122.53;;;81.40;;
66587;SDS011;53446;50.076;8.198;2023-08-12T02:05:38;124.30;;;81.50;;
66587;SDS011;53446;50.076;8.198;2023-08-12T02:07:40;125.25;;;81.50;;
66587;SDS011;53446;50.076;8.198;2023-08-12T02:09:41;128.37;;;83.17;;
66587;SDS011;53446;50.076;8.198;2023-08-12T02:11:41;131.43;;;83.43;;
66587;SDS011;53446;50.076;8.198;2023-08-12T02:13:41;129.63;;;84.20;;
66587;SDS011;53446;50.076;8.198;2023-08-12T02:15:42;129.80;;;84.10;;
66587;SDS011;53446;50.076;8.198;2023-08-12T02:17:43;131.75;;;83.85;;
66587;SDS011;53446;50.076;8.198;2023-08-12T02:19:43;133.67;;;85.93;;
66587;SDS011;53446;50.076;8.198;2023-08-12T02:21:43;135.60;;;86.00;;
66587;SDS011;53446;50.076;8.198;2023-08-12T02:23:44;136.07;;;85.90;;
66587;SDS011;53446;50.076;8.198;2023-08-12T02:25:44;135.88;;;85.57;;
66587;SDS011;53446;50.076;8.198;2023-08-12T02:27:44;138.30;;;86.75;;
66587;SDS011;53446;50.076;8.198;2023-08-12T02:29:45;141.97;;;88.67;;
66587;SDS011;53446;50.076;8.198;2023-08-12T02:31:45;136.60;;;86.37;;
66587;SDS011;53446;50.076;8.198;2023-08-12T02:33:45;135.73;;;87.07;;
66587;SDS011;53446;50.076;8.198;2023-08-12T02:35:46;136.23;;;86.57;;
66587;SDS011;53446;50.076;8.198;2023-08-12T02:37:47;135.00;;;86.20;;
66587;SDS011;53446;50.076;8.198;2023-08-12T02:39:48;132.18;;;85.07;;
66587;SDS011;53446;50.076;8.198;2023-08-12T02:41:48;132.60;;;85.37;;
66587;SDS011;53446;50.076;8.198;2023-08-12T02:43:48;138.13;;;88.47;;
66587;SDS011;53446;50.076;8.198;2023-08-12T02:45:49;142.50;;;90.27;;
66587;SDS011;53446;50.076;8.198;2023-08-12T02:47:49;152.70;;;92.03;;
66587;SDS011;53446;50.076;8.198;2023-08-12T02:49:49;156.80;;;94.60;;
66587;SDS011;53446;50.076;8.198;2023-08-12T02:51:49;158.97;;;96.07;;
66587;SDS011;53446;50.076;8.198;2023-08-12T02:53:50;169.80;;;100.28;;
66587;SDS011;53446;50.076;8.198;2023-08-12T02:55:50;174.17;;;100.23;;
66587;SDS011;53446;50.076;8.198;2023-08-12T02:57:50;180.00;;;104.80;;
66587;SDS011;53446;50.076;8.198;2023-08-12T02:59:51;182.03;;;103.97;;
66587;SDS011;53446;50.076;8.198;2023-08-12T03:01:51;186.13;;;104.67;;
66587;SDS011;53446;50.076;8.198;2023-08-12T03:03:52;191.65;;;106.82;;
66587;SDS011;53446;50.076;8.198;2023-08-12T03:05:52;189.70;;;107.53;;
66587;SDS011;53446;50.076;8.198;2023-08-12T03:07:53;192.27;;;108.27;;
66587;SDS011;53446;50.076;8.198;2023-08-12T03:09:53;189.37;;;106.80;;
66587;SDS011;53446;50.076;8.198;2023-08-12T03:11:53;188.38;;;105.63;;
66587;SDS011;53446;50.076;8.198;2023-08-12T03:13:54;192.00;;;109.43;;
66587;SDS011;53446;50.076;8.198;2023-08-12T03:15:54;190.03;;;107.17;;
66587;SDS011;53446;50.076;8.198;2023-08-12T03:17:55;186.87;;;105.87;;
66587;SDS011;53446;50.076;8.198;2023-08-12T03:19:57;186.20;;;105.55;;
66587;SDS011;53446;50.076;8.198;2023-08-12T03:21:59;183.90;;;104.75;;
66587;SDS011;53446;50.076;8.198;2023-08-12T03:23:59;187.27;;;105.93;;
66587;SDS011;53446;50.076;8.198;2023-08-12T03:25:59;183.00;;;104.33;;
66587;SDS011;53446;50.076;8.198;2023-08-12T03:28:00;188.40;;;105.17;;
66587;SDS011;53446;50.076;8.198;2023-08-12T03:30:00;183.80;;;104.77;;
66587;SDS011;53446;50.076;8.198;2023-08-12T03:32:00;182.43;;;103.23;;
66587;SDS011;53446;50.076;8.198;2023-08-12T03:34:00;183.37;;;103.03;;
66587;SDS011;53446;50.076;8.198;2023-08-12T03:36:01;186.27;;;104.93;;
66587;SDS011;53446;50.076;8.198;2023-08-12T03:38:01;183.80;;;102.90;;
66587;SDS011;53446;50.076;8.198;2023-08-12T03:40:01;182.80;;;102.33;;
66587;SDS011;53446;50.076;8.198;2023-08-12T03:42:02;181.65;;;102.15;;
66587;SDS011;53446;50.076;8.198;2023-08-12T03:44:02;179.90;;;101.17;;
66587;SDS011;53446;50.076;8.198;2023-08-12T03:46:03;180.70;;;100.63;;
66587;SDS011;53446;50.076;8.198;2023-08-12T03:48:03;180.00;;;100.20;;
66587;SDS011;53446;50.076;8.198;2023-08-12T03:50:05;178.87;;;100.50;;
66587;SDS011;53446;50.076;8.198;2023-08-12T03:52:06;176.43;;;100.25;;
66587;SDS011;53446;50.076;8.198;2023-08-12T03:54:07;173.95;;;99.97;;
66587;SDS011;53446;50.076;8.198;2023-08-12T03:56:07;177.50;;;100.53;;
66587;SDS011;53446;50.076;8.198;2023-08-12T03:58:07;174.33;;;99.50;;
66587;SDS011;53446;50.076;8.198;2023-08-12T04:00:08;172.77;;;98.73;;
66587;SDS011;53446;50.076;8.198;2023-08-12T04:02:08;174.83;;;100.10;;
66587;SDS011;53446;50.076;8.198;2023-08-12T04:04:08;173.87;;;100.53;;
66587;SDS011;53446;50.076;8.198;2023-08-12T04:06:09;173.07;;;99.68;;
66587;SDS011;53446;50.076;8.198;2023-08-12T04:08:09;175.57;;;100.97;;
66587;SDS011;53446;50.076;8.198;2023-08-12T04:10:10;176.37;;;101.00;;
66587;SDS011;53446;50.076;8.198;2023-08-12T04:12:10;175.53;;;100.83;;
66587;SDS011;53446;50.076;8.198;2023-08-12T04:14:10;171.70;;;99.00;;
66587;SDS011;53446;50.076;8.198;2023-08-12T04:16:11;173.18;;;99.85;;
66587;SDS011;53446;50.076;8.198;2023-08-12T04:18:12;172.33;;;98.10;;
66587;SDS011;53446;50.076;8.198;2023-08-12T04:20:15;170.55;;;97.10;;
66587;SDS011;53446;50.076;8.198;2023-08-12T04:22:15;168.07;;;98.43;;
66587;SDS011;53446;50.076;8.198;2023-08-12T04:24:16;167.57;;;97.72;;
66587;SDS011;53446;50.076;8.198;2023-08-12T04:26:17;168.63;;;97.47;;
66587;SDS011;53446;50.076;8.198;2023-08-12T04:28:17;166.57;;;96.27;;
66587;SDS011;53446;50.076;8.198;2023-08-12T04:30:18;165.52;;;97.30;;
66587;SDS011;53446;50.076;8.198;2023-08-12T04:32:18;164.50;;;95.70;;
66587;SDS011;53446;50.076;8.198;2023-08-12T04:34:19;163.10;;;96.27;;
66587;SDS011;53446;50.076;8.198;2023-08-12T04:36:19;164.63;;;95.53;;
66587;SDS011;53446;50.076;8.198;2023-08-12T04:38:19;164.40;;;96.45;;
66587;SDS011;53446;50.076;8.198;2023-08-12T04:40:20;166.83;;;97.60;;
66587;SDS011;53446;50.076;8.198;2023-08-12T04:42:20;163.40;;;96.23;;
66587;SDS011;53446;50.076;8.198;2023-08-12T04:44:21;162.80;;;95.85;;
66587;SDS011;53446;50.076;8.198;2023-08-12T04:46:21;165.23;;;96.17;;
66587;SDS011;53446;50.076;8.198;2023-08-12T04:48:21;164.47;;;97.13;;
66587;SDS011;53446;50.076;8.198;2023-08-12T04:50:22;167.77;;;96.50;;
66587;SDS011;53446;50.076;8.198;2023-08-12T04:52:22;161.10;;;95.57;;
66587;SDS011;53446;50.076;8.198;2023-08-12T04:54:22;161.90;;;96.27;;
66587;SDS011;53446;50.076;8.198;2023-08-12T04:56:23;170.50;;;98.23;;
66587;SDS011;53446;50.076;8.198;2023-08-12T04:58:24;166.02;;;96.82;;
66587;SDS011;53446;50.076;8.198;2023-08-12T05:00:24;160.97;;;95.33;;
66587;SDS011;53446;50.076;8.198;2023-08-12T05:02:24;161.07;;;95.30;;
66587;SDS011;53446;50.076;8.198;2023-08-12T05:04:25;161.13;;;95.97;;
66587;SDS011;53446;50.076;8.198;2023-08-12T05:06:25;157.40;;;95.20;;
66587;SDS011;53446;50.076;8.198;2023-08-12T05:08:25;154.95;;;93.80;;
66587;SDS011;53446;50.076;8.198;2023-08-12T05:10:26;157.23;;;94.57;;
66587;SDS011;53446;50.076;8.198;2023-08-12T05:12:26;158.67;;;94.80;;
66587;SDS011;53446;50.076;8.198;2023-08-12T05:14:26;153.63;;;92.87;;
66587;SDS011;53446;50.076;8.198;2023-08-12T05:16:26;155.80;;;92.70;;
66587;SDS011;53446;50.076;8.198;2023-08-12T05:18:28;157.10;;;93.78;;
66587;SDS011;53446;50.076;8.198;2023-08-12T05:20:29;157.98;;;94.43;;
66587;SDS011;53446;50.076;8.198;2023-08-12T05:22:29;158.77;;;94.17;;
66587;SDS011;53446;50.076;8.198;2023-08-12T05:24:30;160.83;;;94.17;;
66587;SDS011;53446;50.076;8.198;2023-08-12T05:26:30;164.13;;;96.00;;
66587;SDS011;53446;50.076;8.198;2023-08-12T05:28:31;160.70;;;94.73;;
66587;SDS011;53446;50.076;8.198;2023-08-12T05:30:31;159.43;;;93.80;;
66587;SDS011;53446;50.076;8.198;2023-08-12T05:32:31;163.00;;;96.43;;
66587;SDS011;53446;50.076;8.198;2023-08-12T05:34:31;166.53;;;97.57;;
66587;SDS011;53446;50.076;8.198;2023-08-12T05:36:32;164.17;;;96.33;;
66587;SDS011;53446;50.076;8.198;2023-08-12T05:38:32;165.30;;;96.87;;
66587;SDS011;53446;50.076;8.198;2023-08-12T05:40:32;161.17;;;96.43;;
66587;SDS011;53446;50.076;8.198;2023-08-12T05:42:33;161.73;;;95.73;;
66587;SDS011;53446;50.076;8.198;2023-08-12T05:44:34;161.02;;;97.88;;
66587;SDS011;53446;50.076;8.198;2023-08-12T05:46:34;158.20;;;96.27;;
66587;SDS011;53446;50.076;8.198;2023-08-12T05:48:34;161.87;;;98.37;;
66587;SDS011;53446;50.076;8.198;2023-08-12T05:50:35;166.20;;;100.53;;
66587;SDS011;53446;50.076;8.198;2023-08-12T05:52:35;165.30;;;99.90;;
66587;SDS011;53446;50.076;8.198;2023-08-12T05:54:35;171.32;;;102.47;;
66587;SDS011;53446;50.076;8.198;2023-08-12T05:56:35;174.25;;;104.13;;
66587;SDS011;53446;50.076;8.198;2023-08-12T05:58:36;175.00;;;104.43;;
66587;SDS011;53446;50.076;8.198;2023-08-12T06:00:36;172.93;;;103.53;;
66587;SDS011;53446;50.076;8.198;2023-08-12T06:02:36;176.63;;;103.30;;
66587;SDS011;53446;50.076;8.198;2023-08-12T06:04:37;177.17;;;104.83;;
66587;SDS011;53446;50.076;8.198;2023-08-12T06:06:37;170.03;;;101.80;;
66587;SDS011;53446;50.076;8.198;2023-08-12T06:08:37;169.88;;;101.22;;
66587;SDS011;53446;50.076;8.198;2023-08-12T06:10:38;173.43;;;101.72;;
66587;SDS011;53446;50.076;8.198;2023-08-12T06:12:38;168.83;;;101.77;;
66587;SDS011;53446;50.076;8.198;2023-08-12T06:14:38;171.67;;;102.53;;
66587;SDS011;53446;50.076;8.198;2023-08-12T06:16:39;166.50;;;100.67;;
66587;SDS011;53446;50.076;8.198;2023-08-12T06:18:39;163.17;;;98.93;;
66587;SDS011;53446;50.076;8.198;2023-08-12T06:20:40;166.23;;;100.73;;
66587;SDS011;53446;50.076;8.198;2023-08-12T06:22:40;164.27;;;98.32;;
66587;SDS011;53446;50.076;8.198;2023-08-12T06:24:40;161.70;;;99.80;;
66587;SDS011;53446;50.076;8.198;2023-08-12T06:26:41;157.77;;;96.87;;
66587;SDS011;53446;50.076;8.198;2023-08-12T06:28:41;157.37;;;98.27;;
66587;SDS011;53446;50.076;8.198;2023-08-12T06:30:44;149.35;;;92.75;;
66587;SDS011;53446;50.076;8.198;2023-08-12T06:32:45;151.30;;;93.68;;
66587;SDS011;53446;50.076;8.198;2023-08-12T06:34:45;141.47;;;89.60;;
66587;SDS011;53446;50.076;8.198;2023-08-12T06:36:46;143.25;;;90.47;;
66587;SDS011;53446;50.076;8.198;2023-08-12T06:38:46;139.90;;;88.00;;
66587;SDS011;53446;50.076;8.198;2023-08-12T06:40:47;139.80;;;90.43;;
66587;SDS011;53446;50.076;8.198;2023-08-12T06:42:47;137.77;;;89.33;;
66587;SDS011;53446;50.076;8.198;2023-08-12T06:44:53;134.97;;;87.77;;
66587;SDS011;53446;50.076;8.198;2023-08-12T06:46:54;130.93;;;86.35;;
66587;SDS011;53446;50.076;8.198;2023-08-12T06:48:55;130.57;;;85.50;;
66587;SDS011;53446;50.076;8.198;2023-08-12T06:50:55;127.53;;;85.43;;
66587;SDS011;53446;50.076;8.198;2023-08-12T06:52:56;123.10;;;83.90;;
66587;SDS011;53446;50.076;8.198;2023-08-12T06:54:56;122.70;;;83.67;;
66587;SDS011;53446;50.076;8.198;2023-08-12T06:56:56;115.93;;;80.93;;
66587;SDS011;53446;50.076;8.198;2023-08-12T06:58:57;113.43;;;80.20;;
66587;SDS011;53446;50.076;8.198;2023-08-12T07:00:57;113.93;;;81.23;;
66587;SDS011;53446;50.076;8.198;2023-08-12T07:02:59;116.80;;;80.70;;
66587;SDS011;53446;50.076;8.198;2023-08-12T07:04:59;113.30;;;80.73;;
66587;SDS011;53446;50.076;8.198;2023-08-12T07:06:59;117.40;;;81.30;;
66587;SDS011;53446;50.076;8.198;2023-08-12T07:09:00;109.80;;;79.00;;
66587;SDS011;53446;50.076;8.198;2023-08-12T07:11:00;113.53;;;79.80;;
66587;SDS011;53446;50.076;8.198;2023-08-12T07:13:00;111.60;;;79.90;;
66587;SDS011;53446;50.076;8.198;2023-08-12T07:15:01;107.57;;;78.17;;
66587;SDS011;53446;50.076;8.198;2023-08-12T07:17:01;108.63;;;78.47;;
66587;SDS011;53446;50.076;8.198;2023-08-12T07:19:01;97.80;;;74.23;;
66587;SDS011;53446;50.076;8.198;2023-08-12T07:21:01;103.33;;;77.30;;
66587;SDS011;53446;50.076;8.198;2023-08-12T07:23:02;101.87;;;75.67;;
66587;SDS011;53446;50.076;8.198;2023-08-12T07:25:02;95.15;;;72.00;;
66587;SDS011;53446;50.076;8.198;2023-08-12T07:27:03;95.47;;;72.43;;
66587;SDS011;53446;50.076;8.198;2023-08-12T07:29:03;92.87;;;70.73;;
66587;SDS011;53446;50.076;8.198;2023-08-12T07:31:03;93.30;;;71.83;;
66587;SDS011;53446;50.076;8.198;2023-08-12T07:33:04;93.75;;;72.55;;
66587;SDS011;53446;50.076;8.198;2023-08-12T07:35:04;96.07;;;74.37;;
66587;SDS011;53446;50.076;8.198;2023-08-12T07:37:08;92.47;;;71.53;;
66587;SDS011;53446;50.076;8.198;2023-08-12T07:39:08;93.60;;;72.30;;
66587;SDS011;53446;50.076;8.198;2023-08-12T07:41:09;93.77;;;72.17;;
66587;SDS011;53446;50.076;8.198;2023-08-12T07:43:09;99.40;;;75.50;;
66587;SDS011;53446;50.076;8.198;2023-08-12T07:45:09;93.87;;;72.30;;
66587;SDS011;53446;50.076;8.198;2023-08-12T07:47:10;91.97;;;71.20;;
66587;SDS011;53446;50.076;8.198;2023-08-12T07:49:10;96.22;;;72.95;;
66587;SDS011;53446;50.076;8.198;2023-08-12T07:51:11;96.07;;;72.53;;
66587;SDS011;53446;50.076;8.198;2023-08-12T07:53:11;95.80;;;74.20;;
66587;SDS011;53446;50.076;8.198;2023-08-12T07:55:11;98.23;;;75.93;;
66587;SDS011;53446;50.076;8.198;2023-08-12T07:57:12;98.60;;;75.97;;
66587;SDS011;53446;50.076;8.198;2023-08-12T07:59:12;101.13;;;75.80;;
66587;SDS011;53446;50.076;8.198;2023-08-12T08:01:13;104.40;;;78.87;;
66587;SDS011;53446;50.076;8.198;2023-08-12T08:03:13;98.68;;;78.18;;
66587;SDS011;53446;50.076;8.198;2023-08-12T08:05:14;107.10;;;79.43;;
66587;SDS011;53446;50.076;8.198;2023-08-12T08:07:15;102.77;;;78.00;;
66587;SDS011;53446;50.076;8.198;2023-08-12T08:09:16;105.85;;;79.25;;
66587;SDS011;53446;50.076;8.198;2023-08-12T08:11:16;109.75;;;80.97;;
66587;SDS011;53446;50.076;8.198;2023-08-12T08:13:16;106.03;;;78.63;;
66587;SDS011;53446;50.076;8.198;2023-08-12T08:15:17;108.33;;;80.60;;
66587;SDS011;53446;50.076;8.198;2023-08-12T08:17:17;105.83;;;79.43;;
66587;SDS011;53446;50.076;8.198;2023-08-12T08:19:18;102.77;;;78.10;;
66587;SDS011;53446;50.076;8.198;2023-08-12T08:21:18;99.60;;;76.30;;
66587;SDS011;53446;50.076;8.198;2023-08-12T08:23:18;99.00;;;74.77;;
66587;SDS011;53446;50.076;8.198;2023-08-12T08:25:19;91.37;;;71.27;;
66587;SDS011;53446;50.076;8.198;2023-08-12T08:27:19;84.40;;;66.20;;
66587;SDS011;53446;50.076;8.198;2023-08-12T08:29:20;78.47;;;63.80;;
66587;SDS011;53446;50.076;8.198;2023-08-12T08:31:21;75.20;;;62.53;;
66587;SDS011;53446;50.076;8.198;2023-08-12T08:33:22;69.50;;;58.07;;
66587;SDS011;53446;50.076;8.198;2023-08-12T08:35:22;64.43;;;54.17;;
66587;SDS011;53446;50.076;8.198;2023-08-12T08:37:22;64.03;;;53.27;;
66587;SDS011;53446;50.076;8.198;2023-08-12T08:39:23;58.27;;;49.43;;
66587;SDS011;53446;50.076;8.198;2023-08-12T08:41:24;54.40;;;48.20;;
66587;SDS011;53446;50.076;8.198;2023-08-12T08:43:24;57.47;;;48.37;;
66587;SDS011;53446;50.076;8.198;2023-08-12T08:45:26;55.85;;;47.50;;
66587;SDS011;53446;50.076;8.198;2023-08-12T08:47:27;55.03;;;47.17;;
66587;SDS011;53446;50.076;8.198;2023-08-12T08:49:28;54.33;;;46.30;;
66587;SDS011;53446;50.076;8.198;2023-08-12T08:51:29;50.65;;;43.45;;
66587;SDS011;53446;50.076;8.198;2023-08-12T08:53:30;50.63;;;41.53;;
66587;SDS011;53446;50.076;8.198;2023-08-12T08:55:30;51.27;;;42.57;;
66587;SDS011;53446;50.076;8.198;2023-08-12T08:57:31;56.70;;;41.97;;
66587;SDS011;53446;50.076;8.198;2023-08-12T08:59:32;48.40;;;39.15;;
66587;SDS011;53446;50.076;8.198;2023-08-12T09:01:32;44.73;;;37.63;;
66587;SDS011;53446;50.076;8.198;2023-08-12T09:03:36;46.53;;;34.88;;
66587;SDS011;53446;50.076;8.198;2023-08-12T09:05:38;45.05;;;35.10;;
66587;SDS011;53446;50.076;8.198;2023-08-12T09:07:38;42.45;;;34.20;;
66587;SDS011;53446;50.076;8.198;2023-08-12T09:09:39;40.60;;;32.40;;
66587;SDS011;53446;50.076;8.198;2023-08-12T09:11:42;43.13;;;33.22;;
66587;SDS011;53446;50.076;8.198;2023-08-12T09:13:44;41.13;;;30.70;;
66587;SDS011;53446;50.076;8.198;2023-08-12T09:15:45;40.00;;;29.58;;
66587;SDS011;53446;50.076;8.198;2023-08-12T09:17:45;37.00;;;27.15;;
66587;SDS011;53446;50.076;8.198;2023-08-12T09:19:46;34.07;;;24.57;;
66587;SDS011;53446;50.076;8.198;2023-08-12T09:21:51;36.03;;;23.17;;
66587;SDS011;53446;50.076;8.198;2023-08-12T09:23:53;32.80;;;21.42;;
66587;SDS011;53446;50.076;8.198;2023-08-12T09:25:54;32.53;;;20.05;;
66587;SDS011;53446;50.076;8.198;2023-08-12T09:27:55;34.65;;;20.27;;
66587;SDS011;53446;50.076;8.198;2023-08-12T09:29:56;32.27;;;19.57;;
66587;SDS011;53446;50.076;8.198;2023-08-12T09:32:10;30.80;;;17.13;;
66587;SDS011;53446;50.076;8.198;2023-08-12T09:34:14;32.00;;;17.40;;
66587;SDS011;53446;50.076;8.198;2023-08-12T09:36:15;30.03;;;17.40;;
66587;SDS011;53446;50.076;8.198;2023-08-12T09:38:15;30.17;;;18.45;;
66587;SDS011;53446;50.076;8.198;2023-08-12T09:40:16;29.27;;;16.43;;
66587;SDS011;53446;50.076;8.198;2023-08-12T09:42:16;28.27;;;16.53;;
66587;SDS011;53446;50.076;8.198;2023-08-12T09:44:17;30.60;;;17.48;;
66587;SDS011;53446;50.076;8.198;2023-08-12T09:46:17;30.40;;;18.00;;
66587;SDS011;53446;50.076;8.198;2023-08-12T09:48:18;30.13;;;18.27;;
66587;SDS011;53446;50.076;8.198;2023-08-12T09:50:20;34.10;;;20.13;;
66587;SDS011;53446;50.076;8.198;2023-08-12T09:52:21;30.00;;;18.83;;
66587;SDS011;53446;50.076;8.198;2023-08-12T09:54:21;33.13;;;21.20;;
66587;SDS011;53446;50.076;8.198;2023-08-12T09:56:22;36.70;;;23.65;;
66587;SDS011;53446;50.076;8.198;2023-08-12T09:58:23;36.87;;;23.60;;
66587;SDS011;53446;50.076;8.198;2023-08-12T10:00:24;34.40;;;24.98;;
66587;SDS011;53446;50.076;8.198;2023-08-12T10:02:25;35.80;;;26.55;;
66587;SDS011;53446;50.076;8.198;2023-08-12T10:04:27;42.03;;;31.37;;
66587;SDS011;53446;50.076;8.198;2023-08-12T10:06:28;42.65;;;33.78;;
66587;SDS011;53446;50.076;8.198;2023-08-12T10:08:29;47.47;;;38.17;;
66587;SDS011;53446;50.076;8.198;2023-08-12T10:10:30;48.17;;;41.15;;
66587;SDS011;53446;50.076;8.198;2023-08-12T10:12:33;55.13;;;45.22;;
66587;SDS011;53446;50.076;8.198;2023-08-12T10:14:33;56.70;;;49.53;;
66587;SDS011;53446;50.076;8.198;2023-08-12T10:16:33;66.30;;;56.00;;
66587;SDS011;53446;50.076;8.198;2023-08-12T10:18:35;72.18;;;57.80;;
66587;SDS011;53446;50.076;8.198;2023-08-12T10:20:37;80.50;;;64.63;;
66587;SDS011;53446;50.076;8.198;2023-08-12T10:22:39;86.43;;;68.25;;
66587;SDS011;53446;50.076;8.198;2023-08-12T10:24:40;94.55;;;71.00;;
66587;SDS011;53446;50.076;8.198;2023-08-12T10:26:42;102.85;;;76.05;;
66587;SDS011;53446;50.076;8.198;2023-08-12T10:28:43;112.37;;;79.10;;
66587;SDS011;53446;50.076;8.198;2023-08-12T10:30:44;119.00;;;82.03;;
66587;SDS011;53446;50.076;8.198;2023-08-12T10:32:44;121.10;;;81.47;;
66587;SDS011;53446;50.076;8.198;2023-08-12T10:34:45;127.60;;;85.32;;
66587;SDS011;53446;50.076;8.198;2023-08-12T10:36:54;134.73;;;87.95;;
66587;SDS011;53446;50.076;8.198;2023-08-12T10:38:55;139.10;;;90.05;;
66587;SDS011;53446;50.076;8.198;2023-08-12T10:43:22;157.73;;;97.50;;
66587;SDS011;53446;50.076;8.198;2023-08-12T10:45:40;154.77;;;97.47;;
66587;SDS011;53446;50.076;8.198;2023-08-12T10:47:42;160.60;;;99.53;;
66587;SDS011;53446;50.076;8.198;2023-08-12T10:49:51;156.32;;;95.90;;
66587;SDS011;53446;50.076;8.198;2023-08-12T10:51:53;143.02;;;89.50;;
66587;SDS011;53446;50.076;8.198;2023-08-12T10:53:54;148.88;;;91.95;;
66587;SDS011;53446;50.076;8.198;2023-08-12T10:56:10;151.75;;;94.65;;
66587;SDS011;53446;50.076;8.198;2023-08-12T10:58:14;146.30;;;91.38;;
66587;SDS011;53446;50.076;8.198;2023-08-12T11:00:26;154.40;;;93.57;;
66587;SDS011;53446;50.076;8.198;2023-08-12T11:02:28;151.75;;;92.57;;
66587;SDS011;53446;50.076;8.198;2023-08-12T11:04:35;145.43;;;91.30;;
66587;SDS011;53446;50.076;8.198;2023-08-12T11:06:42;142.73;;;89.63;;
66587;SDS011;53446;50.076;8.198;2023-08-12T11:08:46;135.85;;;87.20;;
66587;SDS011;53446;50.076;8.198;2023-08-12T11:10:46;126.07;;;82.97;;
66587;SDS011;53446;50.076;8.198;2023-08-12T11:12:56;113.38;;;78.65;;
66587;SDS011;53446;50.076;8.198;2023-08-12T11:14:58;110.80;;;77.35;;
66587;SDS011;53446;50.076;8.198;2023-08-12T11:17:11;102.40;;;73.97;;
66587;SDS011;53446;50.076;8.198;2023-08-12T11:19:13;92.95;;;70.60;;
66587;SDS011;53446;50.076;8.198;2023-08-12T11:21:13;85.17;;;67.10;;
66587;SDS011;53446;50.076;8.198;2023-08-12T11:23:14;76.95;;;60.97;;
66587;SDS011;53446;50.076;8.198;2023-08-12T11:25:15;65.80;;;54.23;;
66587;SDS011;53446;50.076;8.198;2023-08-12T11:27:15;54.23;;;47.17;;
66587;SDS011;53446;50.076;8.198;2023-08-12T11:29:16;47.70;;;39.50;;
66587;SDS011;53446;50.076;8.198;2023-08-12T11:31:18;35.42;;;26.83;;
66587;SDS011;53446;50.076;8.198;2023-08-12T11:33:18;33.50;;;22.27;;
66587;SDS011;53446;50.076;8.198;2023-08-12T11:35:19;28.80;;;16.73;;
66587;SDS011;53446;50.076;8.198;2023-08-12T11:37:20;26.60;;;14.27;;
66587;SDS011;53446;50.076;8.198;2023-08-12T11:39:20;26.60;;;13.67;;
66587;SDS011;53446;50.076;8.198;2023-08-12T11:41:22;24.23;;;13.07;;
66587;SDS011;53446;50.076;8.198;2023-08-12T11:43:23;26.95;;;13.50;;
66587;SDS011;53446;50.076;8.198;2023-08-12T11:45:24;24.57;;;13.43;;